Time;durP1;ratioP1;P1;durP2;ratioP2;P2;SDS_P1;SDS_P2;PMS_P1;PMS_P2;Temp;Humidity;BMP_temperature;BMP_pressure;BME280_temperature;BME280_humidity;BME280_pressure;Samples;Min_cycle;Max_cycle;Signal;HPM_P1;HPM_P2
2023/03/06 00:02:22;;;;;;;;;21.75;18.75;;;;;7.88;81.66;100546.47;146635;572;45016;-77
2023/03/06 00:05:19;;;;;;;;;16.50;15.00;;;;;7.92;81.84;100563.94;146639;589;44021;-78
2023/03/06 00:08:24;;;;;;;;;15.50;15.25;;;;;7.91;81.34;100563.84;146637;634;44911;-74
2023/03/06 00:11:43;;;;;;;;;19.00;14.75;;;;;7.85;81.27;100560.09;146637;592;45010;-73
2023/03/06 00:14:51;;;;;;;;;18.50;17.00;;;;;7.78;81.07;100562.22;146635;609;44040;-74
2023/03/06 00:18:16;;;;;;;;;19.25;17.75;;;;;6.78;81.49;100386.00;146638;576;44020;-73
2023/03/06 00:21:20;;;;;;;;;17.75;16.00;;;;;6.88;81.53;100401.22;146634;573;44915;-74
2023/03/06 00:24:14;;;;;;;;;17.75;14.75;;;;;7.78;81.57;100570.84;146638;592;44020;-71
2023/03/06 00:27:30;;;;;;;;;16.25;16.25;;;;;7.73;81.76;100571.41;146636;641;44916;-71
2023/03/06 00:30:27;;;;;;;;;17.00;16.50;;;;;7.68;81.59;100571.09;146627;606;45020;-70
2023/03/06 00:33:25;;;;;;;;;14.75;13.75;;;;;7.68;81.97;100578.84;146630;649;46012;-74
2023/03/06 00:36:25;;;;;;;;;16.25;14.50;;;;;7.71;81.40;100581.59;146629;566;45020;-74
2023/03/06 00:39:18;;;;;;;;;14.50;13.50;;;;;7.70;81.42;100582.41;146625;576;45016;-74
2023/03/06 00:42:19;;;;;;;;;15.00;11.25;;;;;7.69;81.20;100582.31;146632;625;45020;-74
2023/03/06 00:45:29;;;;;;;;;15.75;12.50;;;;;7.63;81.21;100590.56;146624;570;47911;-74
2023/03/06 00:48:29;;;;;;;;;13.50;10.25;;;;;7.55;81.18;100586.66;146631;696;45020;-74
2023/03/06 00:51:41;;;;;;;;;16.25;14.00;;;;;7.50;81.63;100583.78;146628;636;45016;-73
2023/03/06 00:54:52;;;;;;;;;21.00;17.25;;;;;7.51;81.61;100587.28;146631;576;45020;-72
2023/03/06 00:57:56;;;;;;;;;20.50;14.25;;;;;7.48;81.77;100582.81;146627;593;45017;-79
2023/03/06 01:01:20;;;;;;;;;17.75;16.50;;;;;5.67;81.42;100264.06;146626;665;45020;-75
2023/03/06 01:04:25;;;;;;;;;13.75;12.25;;;;;7.40;81.90;100584.00;146621;630;47914;-83
2023/03/06 01:07:32;;;;;;;;;19.25;14.50;;;;;7.35;81.94;100583.75;146634;641;45020;-81
2023/03/06 01:10:38;;;;;;;;;16.75;13.75;;;;;7.30;82.38;100574.81;146629;591;45014;-80
2023/03/06 01:14:04;;;;;;;;;16.50;13.25;;;;;6.19;82.52;100412.41;146633;590;45020;-81
2023/03/06 01:17:24;;;;;;;;;15.25;11.75;;;;;7.25;82.44;100589.09;146632;588;45016;-85
2023/03/06 01:20:34;;;;;;;;;;;;;;;;;;;;;
2023/03/06 01:23:36;;;;;;;;;15.50;14.75;;;;;7.26;83.43;100590.00;146630;629;45914;-86
2023/03/06 01:26:35;;;;;;;;;10.50;8.25;;;;;7.27;83.88;100586.66;146637;636;45021;-84
2023/03/06 01:29:49;;;;;;;;;12.50;8.50;;;;;7.26;83.72;100593.50;146624;663;45016;-79
2023/03/06 01:33:02;;;;;;;;;;;;;;;;;;;;;
2023/03/06 01:36:14;;;;;;;;;14.25;10.00;;;;;7.28;83.33;100598.72;146625;592;45018;-83
2023/03/06 01:39:30;;;;;;;;;12.00;9.75;;;;;7.30;83.16;100595.47;146625;590;45912;-84
2023/03/06 01:42:33;;;;;;;;;9.00;8.50;;;;;7.33;82.89;100594.75;146624;577;45939;-84
2023/03/06 01:46:11;;;;;;;;;10.50;8.00;;;;;6.21;82.99;100413.41;146631;609;45020;-84
2023/03/06 01:49:47;;;;;;;;;7.75;7.75;;;;;5.19;83.51;100249.88;146622;594;46019;-82
2023/03/06 01:53:11;;;;;;;;;10.50;8.25;;;;;7.22;83.65;100608.66;146632;563;45012;-79
2023/03/06 01:56:23;;;;;;;;;9.75;8.50;;;;;7.23;83.80;100613.94;146626;578;45025;-79
2023/03/06 01:59:45;;;;;;;;;11.00;10.00;;;;;6.22;83.10;100443.50;146630;584;45012;-80
2023/03/06 02:03:12;;;;;;;;;10.25;7.75;;;;;7.26;83.26;100627.03;146624;628;45018;-79
2023/03/06 02:06:20;;;;;;;;;10.00;9.75;;;;;7.25;83.20;100629.50;146627;565;45012;-79
2023/03/06 02:09:29;;;;;;;;;8.25;7.50;;;;;7.25;82.67;100634.66;146624;655;45017;-78
2023/03/06 02:12:52;;;;;;;;;9.00;7.00;;;;;7.25;83.71;100630.37;146627;591;45020;-79
2023/03/06 02:15:49;;;;;;;;;14.25;10.50;;;;;7.28;83.14;100634.84;146623;621;45016;-76
2023/03/06 02:19:06;;;;;;;;;13.00;11.50;;;;;7.31;83.51;100635.03;146627;569;45023;-78
2023/03/06 02:22:25;;;;;;;;;;;;;;;;;;;;;
2023/03/06 02:26:01;;;;;;;;;8.50;8.50;;;;;7.34;82.86;100641.28;146627;613;45021;-78
2023/03/06 02:29:10;;;;;;;;;11.25;7.50;;;;;7.33;82.95;100641.19;146623;581;45018;-82
2023/03/06 02:32:06;;;;;;;;;9.50;7.75;;;;;7.31;83.35;100638.50;146625;580;45020;-82
2023/03/06 02:35:06;;;;;;;;;9.00;7.00;;;;;7.31;83.21;100648.81;146627;648;45016;-77
2023/03/06 02:38:09;;;;;;;;;6.00;5.00;;;;;7.32;83.56;100652.28;146627;665;45012;-77
2023/03/06 02:41:30;;;;;;;;;10.75;8.75;;;;;7.30;83.47;100644.47;146626;576;45017;-77
2023/03/06 02:44:39;;;;;;;;;8.75;8.25;;;;;6.19;83.51;100451.03;146627;584;45020;-78
2023/03/06 02:47:48;;;;;;;;;9.00;6.00;;;;;7.26;84.12;100646.72;146623;591;45016;-78
2023/03/06 02:51:31;;;;;;;;;7.25;5.75;;;;;7.24;83.61;100644.06;146630;640;45012;-77
2023/03/06 02:54:50;;;;;;;;;7.00;6.00;;;;;6.59;83.55;100515.37;146628;578;45017;-77
2023/03/06 02:57:54;;;;;;;;;7.50;5.50;;;;;7.42;83.78;100643.47;146631;643;45020;-72
2023/03/06 03:00:54;;;;;;;;;9.00;6.50;;;;;7.46;83.19;100648.00;146628;600;45016;-78
2023/03/06 03:03:58;;;;;;;;;11.75;8.50;;;;;7.46;82.83;100640.25;146628;574;45020;-71
2023/03/06 03:07:02;;;;;;;;;9.00;7.25;;;;;7.47;82.62;100647.19;146623;569;45016;-72
2023/03/06 03:10:22;;;;;;;;;;;;;;;;;;;;;
2023/03/06 03:13:31;;;;;;;;;6.00;6.00;;;;;7.46;82.42;100638.56;146624;659;45913;-73
2023/03/06 03:16:35;;;;;;;;;5.25;5.25;;;;;7.48;82.50;100637.00;146629;619;45021;-73
2023/03/06 03:19:43;;;;;;;;;5.00;5.00;;;;;7.51;81.92;100650.06;146626;720;45014;-72
2023/03/06 03:22:38;;;;;;;;;6.25;5.00;;;;;7.49;82.24;100638.75;146628;656;45020;-75
2023/03/06 03:25:45;;;;;;;;;5.75;4.50;;;;;7.51;81.87;100655.25;146623;596;46016;-74
2023/03/06 03:28:38;;;;;;;;;5.50;3.50;;;;;7.56;82.25;100655.50;146644;659;45012;-78
2023/03/06 03:32:03;;;;;;;;;5.25;4.00;;;;;6.49;81.89;100469.22;146633;576;45017;-79
2023/03/06 03:35:08;;;;;;;;;9.75;9.00;;;;;7.47;82.44;100657.50;146638;578;45031;-80
2023/03/06 03:38:24;;;;;;;;;6.75;5.75;;;;;7.38;82.38;100666.47;146633;615;45017;-79
2023/03/06 03:41:21;;;;;;;;;5.00;3.00;;;;;7.32;82.54;100655.78;146639;569;45020;-78
2023/03/06 03:44:36;;;;;;;;;8.25;6.25;;;;;7.32;83.02;100652.28;146637;589;45015;-77
2023/03/06 03:47:45;;;;;;;;;4.50;4.50;;;;;7.33;82.86;100660.13;146640;624;45020;-76
2023/03/06 03:50:47;;;;;;;;;6.75;4.75;;;;;7.33;82.53;100659.25;146635;633;45016;-76
2023/03/06 03:53:49;;;;;;;;;5.75;5.50;;;;;7.36;82.59;100662.03;146638;580;45020;-77
2023/03/06 03:57:00;;;;;;;;;6.25;5.25;;;;;7.36;82.29;100667.19;146634;608;45014;-78
2023/03/06 04:00:18;;;;;;;;;7.75;6.25;;;;;7.36;81.96;100660.31;146640;572;45013;-77
2023/03/06 04:03:21;;;;;;;;;6.25;5.50;;;;;7.36;82.21;100670.63;146633;648;45035;-77
2023/03/06 04:06:22;;;;;;;;;5.25;4.75;;;;;7.41;82.38;100668.34;146640;631;45020;-77
2023/03/06 04:09:18;;;;;;;;;4.75;4.75;;;;;7.46;82.47;100682.44;146635;573;45017;-77
2023/03/06 04:12:14;;;;;;;;;4.25;4.00;;;;;7.47;82.05;100681.63;146638;596;45020;-77
2023/03/06 04:15:20;;;;;;;;;5.00;4.00;;;;;7.44;81.54;100680.53;146635;607;45913;-79
2023/03/06 04:18:17;;;;;;;;;6.00;5.25;;;;;7.38;81.68;100687.13;146639;602;45020;-78
2023/03/06 04:21:26;;;;;;;;;8.00;5.00;;;;;7.36;81.57;100687.81;146634;592;45016;-75
2023/03/06 04:24:19;;;;;;;;;8.25;7.00;;;;;7.33;81.54;100688.50;146638;578;45020;-75
2023/03/06 04:27:16;;;;;;;;;7.25;6.00;;;;;7.26;80.90;100682.84;146632;569;45020;-75
2023/03/06 04:30:31;;;;;;;;;8.50;6.00;;;;;7.16;80.48;100687.44;146625;580;45021;-76
2023/03/06 04:33:34;;;;;;;;;9.50;8.00;;;;;7.10;81.36;100686.12;146625;604;45917;-77
2023/03/06 04:36:37;;;;;;;;;7.75;6.50;;;;;7.05;81.17;100683.28;146630;635;45013;-77
2023/03/06 04:39:35;;;;;;;;;10.75;6.50;;;;;7.00;81.57;100683.75;146631;620;45914;-77
2023/03/06 04:42:33;;;;;;;;;10.75;7.00;;;;;6.94;81.76;100687.72;146624;580;45020;-78
2023/03/06 04:45:42;;;;;;;;;8.50;7.50;;;;;6.87;81.87;100695.84;146623;569;45914;-76
2023/03/06 04:48:53;;;;;;;;;8.00;8.00;;;;;6.83;81.79;100699.03;146632;676;45020;-74
2023/03/06 04:51:54;;;;;;;;;9.50;8.00;;;;;6.79;82.71;100702.22;146624;590;45016;-73
2023/03/06 04:54:52;;;;;;;;;17.00;14.00;;;;;6.76;82.99;100704.59;146628;588;45020;-72
2023/03/06 04:57:57;;;;;;;;;11.75;9.75;;;;;6.77;83.33;100711.50;146621;625;46014;-71
2023/03/06 05:01:11;;;;;;;;;8.50;7.50;;;;;4.89;83.74;100378.12;146627;600;45012;-72
2023/03/06 05:04:03;;;;;;;;;8.25;6.00;;;;;6.81;83.83;100716.06;146625;643;45016;-79
2023/03/06 05:07:01;;;;;;;;;7.00;5.50;;;;;6.74;84.56;100706.16;146630;571;45048;-74
2023/03/06 05:10:02;;;;;;;;;9.25;5.75;;;;;6.84;84.53;100715.37;146625;584;45016;-78
2023/03/06 05:12:59;;;;;;;;;4.75;4.00;;;;;6.86;84.56;100719.84;146625;578;45020;-77
2023/03/06 05:15:52;;;;;;;;;10.25;8.25;;;;;6.92;84.42;100730.56;146623;623;45914;-77
2023/03/06 05:19:02;;;;;;;;;5.25;5.25;;;;;5.99;83.68;100544.97;146630;566;45020;-78
2023/03/06 05:21:58;;;;;;;;;7.25;7.00;;;;;7.01;83.69;100726.78;146624;600;47012;-78
2023/03/06 05:25:01;;;;;;;;;5.50;4.50;;;;;7.03;83.28;100736.41;146628;613;45020;-77
2023/03/06 05:28:06;;;;;;;;;5.00;4.00;;;;;7.41;86.59;100735.41;146625;591;45016;-75
2023/03/06 05:31:12;;;;;;;;;9.50;7.00;;;;;8.27;87.84;100735.59;146655;572;44021;-78
2023/03/06 05:34:09;;;;;;;;;9.00;7.00;;;;;9.35;85.51;100735.91;146647;607;45913;-75
2023/03/06 05:37:12;;;;;;;;;6.50;4.75;;;;;10.39;79.13;100733.78;146653;622;45012;-75
2023/03/06 05:40:32;;;;;;;;;5.00;4.00;;;;;11.41;75.36;100738.87;146651;590;45012;-75
2023/03/06 05:43:26;;;;;;;;;5.50;4.00;;;;;12.18;70.99;100738.13;146653;629;44020;-83
2023/03/06 05:46:36;;;;;;;;;8.00;6.50;;;;;12.91;68.60;100741.34;146649;611;45017;-78
2023/03/06 05:50:14;;;;;;;;;;;;;;;;;;;;;
2023/03/06 05:53:37;;;;;;;;;4.75;3.75;;;;;12.73;64.19;100547.12;146650;564;44912;-81
2023/03/06 05:56:38;;;;;;;;;5.00;4.75;;;;;14.12;61.27;100732.22;146650;609;44020;-82
2023/03/06 05:59:39;;;;;;;;;5.25;5.00;;;;;14.35;63.23;100745.22;146652;676;45014;-79
2023/03/06 06:02:53;;;;;;;;;;;;;;;;;;;;;
2023/03/06 06:06:23;;;;;;;;;4.00;4.00;;;;;14.16;65.48;100595.91;146642;588;46012;-80
2023/03/06 06:09:54;;;;;;;;;6.33;4.67;;;;;15.58;63.65;100765.97;146654;563;44022;-76
2023/03/06 06:13:09;;;;;;;;;30.00;26.00;;;;;16.03;59.26;100768.25;146638;571;44911;-76
2023/03/06 06:16:15;;;;;;;;;23.00;21.50;;;;;16.23;59.58;100779.28;146638;603;44021;-77
2023/03/06 06:19:17;;;;;;;;;26.25;24.75;;;;;16.32;57.52;100779.56;146638;611;44913;-75
2023/03/06 06:22:11;;;;;;;;;20.25;15.75;;;;;16.07;56.53;100770.97;146641;565;44049;-76
2023/03/06 06:25:25;;;;;;;;;16.75;14.50;;;;;14.93;58.39;100653.31;146642;579;44913;-79
2023/03/06 06:28:26;;;;;;;;;27.25;24.75;;;;;15.22;59.93;100790.06;146643;569;44020;-78
2023/03/06 06:31:36;;;;;;;;;16.25;13.25;;;;;14.83;62.15;100789.56;146632;593;44865;-81
2023/03/06 06:34:58;;;;;;;;;12.00;10.50;;;;;14.54;63.83;100797.25;146637;632;45012;-80
2023/03/06 06:38:03;;;;;;;;;12.50;11.25;;;;;14.47;65.41;100800.44;146637;577;44917;-81
2023/03/06 06:41:10;;;;;;;;;11.25;8.50;;;;;14.42;63.75;100795.03;146638;588;45020;-79
2023/03/06 06:44:30;;;;;;;;;9.25;7.00;;;;;14.50;63.81;100808.38;146634;575;44911;-86
2023/03/06 06:47:37;;;;;;;;;8.75;5.25;;;;;13.64;62.96;100653.97;146637;665;45010;-85
2023/03/06 06:50:44;;;;;;;;;5.50;4.50;;;;;12.92;64.42;100528.81;146638;649;44913;-74
2023/03/06 06:53:43;;;;;;;;;6.50;5.25;;;;;13.79;63.58;100671.91;146640;600;45012;-82
2023/03/06 06:56:48;;;;;;;;;8.50;5.25;;;;;14.75;63.12;100821.53;146636;603;45913;-78
2023/03/06 06:59:41;;;;;;;;;9.25;8.50;;;;;14.14;63.70;100681.00;146640;597;44050;-82
2023/03/06 07:02:48;;;;;;;;;8.00;7.25;;;;;15.11;63.04;100813.22;146639;673;44016;-75
2023/03/06 07:06:02;;;;;;;;;8.50;7.00;;;;;15.28;65.10;100807.66;146638;606;45021;-77
2023/03/06 07:09:05;;;;;;;;;5.75;5.75;;;;;15.43;63.15;100814.28;146639;577;44911;-76
2023/03/06 07:12:06;;;;;;;;;10.00;8.00;;;;;15.52;62.34;100812.81;146640;609;44021;-73
2023/03/06 07:15:01;;;;;;;;;8.25;8.00;;;;;15.60;62.87;100811.31;146638;643;44912;-73
2023/03/06 07:18:01;;;;;;;;;18.00;17.25;;;;;15.76;62.57;100807.50;146637;569;45010;-73
2023/03/06 07:21:08;;;;;;;;;16.00;13.50;;;;;15.97;62.12;100813.41;146636;616;44911;-72
2023/03/06 07:24:17;;;;;;;;;16.00;13.25;;;;;15.35;62.31;100677.28;146639;575;44020;-75
2023/03/06 07:27:24;;;;;;;;;10.75;9.00;;;;;16.28;61.09;100819.56;146635;588;45010;-78
2023/03/06 07:30:48;;;;;;;;;11.25;11.00;;;;;15.42;62.57;100644.37;146624;569;45022;-78
2023/03/06 07:34:03;;;;;;;;;9.75;8.75;;;;;16.51;59.52;100822.84;146637;677;45911;-77
2023/03/06 07:37:07;;;;;;;;;5.00;5.00;;;;;16.53;59.77;100835.12;146638;655;44021;-83
2023/03/06 07:40:18;;;;;;;;;13.00;10.75;;;;;16.59;59.80;100831.81;146633;631;45911;-81
2023/03/06 07:43:18;;;;;;;;;11.50;9.25;;;;;16.65;59.06;100826.75;146638;633;45010;-77
2023/03/06 07:46:30;;;;;;;;;9.75;9.75;;;;;16.79;60.12;100835.00;146637;686;45911;-79
2023/03/06 07:49:42;;;;;;;;;11.00;10.00;;;;;16.78;59.37;100797.47;146639;698;44021;-78
2023/03/06 07:52:39;;;;;;;;;9.25;9.00;;;;;17.05;57.59;100828.75;146635;666;45911;-78
2023/03/06 07:55:50;;;;;;;;;12.50;11.00;;;;;17.19;59.81;100834.34;146638;608;44020;-79
2023/03/06 07:58:50;;;;;;;;;9.00;8.00;;;;;17.26;57.55;100841.53;146637;676;44935;-79
2023/03/06 08:01:52;;;;;;;;;8.25;7.50;;;;;17.33;56.97;100833.84;146638;569;45010;-77
2023/03/06 08:04:51;;;;;;;;;5.00;3.67;;;;;17.45;54.86;100834.16;146637;567;45911;-78
2023/03/06 08:08:02;;;;;;;;;;;;;;;;;;;;;
2023/03/06 08:11:15;;;;;;;;;;;;;;;;;;;;;
2023/03/06 08:14:20;;;;;;;;;5.67;4.33;;;;;17.62;55.32;100847.66;146640;579;44021;-77
2023/03/06 08:17:15;;;;;;;;;6.33;4.67;;;;;17.73;55.44;100852.31;146633;576;46940;-77
2023/03/06 08:20:11;;;;;;;;;2.00;2.00;;;;;17.76;53.05;100841.91;146640;569;44021;-77
2023/03/06 08:23:13;;;;;;;;;5.00;4.00;;;;;17.82;52.98;100845.53;146639;624;44913;-76
2023/03/06 08:26:24;;;;;;;;;5.50;4.00;;;;;17.77;56.28;100843.69;146638;571;45010;-77
2023/03/06 08:29:26;;;;;;;;;4.33;3.33;;;;;17.74;56.94;100850.59;146637;607;45913;-73
2023/03/06 08:32:35;;;;;;;;;;;;;;;;;;;;;
2023/03/06 08:35:44;;;;;;;;;4.00;4.00;;;;;17.27;55.75;100795.25;146635;635;45016;-73
2023/03/06 08:38:48;;;;;;;;;4.00;3.33;;;;;17.61;51.94;100859.88;146640;564;45012;-72
2023/03/06 08:45:08;;;;;;;;;4.00;3.00;;;;;17.76;55.90;100854.13;146639;586;45020;-72
2023/03/06 08:48:14;;;;;;;;;1.00;1.00;;;;;17.94;54.56;100854.63;146636;624;45915;-71
2023/03/06 08:51:14;;;;;;;;;2.33;1.33;;;;;18.11;51.51;100847.13;146635;635;45021;-72
2023/03/06 08:54:17;;;;;;;;;2.00;2.00;;;;;18.30;50.60;100845.78;146633;622;46016;-70
2023/03/06 08:57:22;;;;;;;;;1.33;1.33;;;;;18.37;50.67;100857.28;146637;603;45913;-72
2023/03/06 09:00:21;;;;;;;;;3.00;3.00;;;;;18.33;51.01;100851.09;146636;584;45912;-74
2023/03/06 09:03:37;;;;;;;;;4.33;3.00;;;;;18.29;53.28;100848.38;146639;585;45020;-71
2023/03/06 09:06:51;;;;;;;;;1.00;1.00;;;;;18.29;51.45;100864.13;146636;591;45914;-73
2023/03/06 09:10:21;;;;;;;;;3.00;2.00;;;;;18.05;53.51;100797.13;146640;599;45012;-74
2023/03/06 09:13:24;;;;;;;;;3.67;1.33;;;;;18.52;51.66;100862.88;146635;586;45016;-73
2023/03/06 09:16:26;;;;;;;;;0.33;0.33;;;;;18.65;49.40;100853.50;146638;599;45020;-73
2023/03/06 09:19:33;;;;;;;;;3.00;0.67;;;;;17.31;51.95;100605.78;146631;569;45913;-73
2023/03/06 09:22:44;;;;;;;;;1.00;1.00;;;;;18.90;48.90;100865.41;146636;586;45020;-74
2023/03/06 09:25:46;;;;;;;;;1.00;1.00;;;;;19.09;46.95;100864.03;146635;570;45913;-75
2023/03/06 09:28:46;;;;;;;;;1.33;1.00;;;;;19.29;50.52;100856.53;146637;677;46010;-73
2023/03/06 09:31:40;;;;;;;;;2.67;2.67;;;;;19.51;49.29;100858.66;146635;591;45014;-71
2023/03/06 09:34:53;;;;;;;;;1.67;1.67;;;;;19.75;53.35;100854.69;146638;680;46020;-74
2023/03/06 09:38:02;;;;;;;;;2.33;2.33;;;;;19.92;46.73;100858.47;146635;570;45018;-72
2023/03/06 09:41:31;;;;;;;;;1.67;1.67;;;;;19.84;47.57;100858.38;146641;588;45012;-77
2023/03/06 09:44:48;;;;;;;;;1.33;1.33;;;;;19.77;49.77;100853.84;146630;620;45018;-75
2023/03/06 09:48:07;;;;;;;;;1.67;1.33;;;;;19.87;50.23;100857.50;146638;628;45020;-75
2023/03/06 09:51:28;;;;;;;;;2.00;2.00;;;;;18.55;46.88;100592.47;146632;620;45912;-77
2023/03/06 09:54:30;;;;;;;;;;;;;;;;;;;;;
2023/03/06 09:58:10;;;;;;;;;3.67;2.00;;;;;18.53;46.75;100564.41;146634;589;45016;-78
2023/03/06 10:01:42;;;;;;;;;1.00;1.00;;;;;19.22;48.80;100686.38;146640;612;45022;-77
2023/03/06 10:04:59;;;;;;;;;2.00;1.00;;;;;20.18;45.77;100861.47;146637;620;45017;-77
2023/03/06 10:08:34;;;;;;;;;2.00;2.00;;;;;20.17;50.63;100853.56;146640;580;45020;-77
2023/03/06 10:12:05;;;;;;;;;2.00;1.33;;;;;20.17;49.96;100841.28;146635;594;45017;-76
2023/03/06 10:15:33;;;;;;;;;0.67;0.33;;;;;18.80;51.24;100577.16;146641;676;45020;-76
2023/03/06 10:18:50;;;;;;;;;0.00;0.00;;;;;20.69;49.06;100859.56;146635;602;45018;-76
2023/03/06 10:22:48;;;;;;;;;0.00;0.00;;;;;20.92;51.46;100860.69;146637;565;45022;-76
2023/03/06 10:26:23;;;;;;;;;0.00;0.00;;;;;19.85;50.01;100630.31;146635;588;45017;-76
2023/03/06 10:29:57;;;;;;;;;;;;;;;;;;;;;
2023/03/06 10:33:22;;;;;;;;;0.67;0.33;;;;;21.51;46.93;100841.09;146634;579;45017;-69
2023/03/06 10:36:34;;;;;;;;;0.67;0.67;;;;;20.18;45.44;100608.72;146636;707;45020;-74
2023/03/06 10:39:28;;;;;;;;;0.33;0.33;;;;;21.54;41.86;100833.19;146635;563;45912;-76
2023/03/06 10:42:23;;;;;;;;;1.00;1.00;;;;;20.85;40.01;100699.84;146637;575;45033;-75
2023/03/06 10:45:24;;;;;;;;;0.33;0.33;;;;;21.58;45.14;100829.69;146633;577;45016;-75
2023/03/06 10:48:37;;;;;;;;;0.67;0.67;;;;;21.65;44.82;100825.34;146642;650;45012;-75
2023/03/06 10:51:32;;;;;;;;;6.33;3.33;;;;;21.69;42.03;100819.25;146632;591;45914;-75
2023/03/06 10:54:31;;;;;;;;;0.00;0.00;;;;;21.80;42.07;100817.53;146642;631;45013;-74
2023/03/06 10:57:45;;;;;;;;;2.00;2.00;;;;;21.97;44.65;100817.66;146636;586;45915;-75
2023/03/06 11:00:39;;;;;;;;;0.67;0.67;;;;;22.09;37.96;100811.59;146638;573;45020;-75
2023/03/06 11:03:33;;;;;;;;;1.00;1.00;;;;;21.99;39.15;100807.97;146636;658;45914;-76
2023/03/06 11:06:41;;;;;;;;;2.00;2.00;;;;;21.04;46.32;100680.69;146640;666;45020;-78
2023/03/06 11:09:33;;;;;;;;;0.67;0.67;;;;;21.34;44.83;100798.72;146636;564;45914;-75
2023/03/06 11:12:44;;;;;;;;;2.67;2.00;;;;;20.96;46.71;100806.25;146637;656;45914;-76
2023/03/06 11:15:39;;;;;;;;;5.00;4.00;;;;;20.84;45.28;100798.22;146636;632;45016;-78
2023/03/06 11:19:05;;;;;;;;;4.67;4.67;;;;;18.95;49.83;100505.56;146639;578;45020;-74
2023/03/06 11:22:36;;;;;;;;;2.00;2.00;;;;;18.73;51.86;100481.63;146632;615;45016;-75
2023/03/06 11:25:52;;;;;;;;;4.00;2.67;;;;;20.38;46.79;100782.75;146639;582;45021;-74
2023/03/06 11:29:07;;;;;;;;;1.67;1.67;;;;;20.29;47.90;100765.09;146633;563;45914;-74
2023/03/06 11:32:41;;;;;;;;;2.33;1.33;;;;;20.37;44.22;100772.19;146639;601;45021;-75
2023/03/06 11:36:24;;;;;;;;;3.67;2.67;;;;;20.50;48.05;100774.12;146631;670;45936;-73
2023/03/06 11:40:19;;;;;;;;;;;;;;;;;;;;;
2023/03/06 11:43:58;;;;;;;;;4.00;2.33;;;;;19.17;40.96;100481.31;146637;563;45014;-72
2023/03/06 11:47:37;;;;;;;;;1.00;1.00;;;;;20.79;45.65;100755.13;146640;609;45022;-72
2023/03/06 11:51:28;;;;;;;;;1.33;1.33;;;;;19.31;44.48;100466.56;146633;644;45914;-72
2023/03/06 11:54:38;;;;;;;;;1.67;1.67;;;;;21.12;43.51;100751.91;146641;575;45021;-70
2023/03/06 11:58:00;;;;;;;;;2.67;1.33;;;;;21.13;41.23;100748.44;146636;570;45016;-72
2023/03/06 12:01:47;;;;;;;;;0.00;0.00;;;;;19.82;43.11;100496.97;146637;573;45020;-71
2023/03/06 12:05:23;;;;;;;;;1.00;1.00;;;;;20.37;43.17;100582.59;146636;689;45016;-73
2023/03/06 12:08:54;;;;;;;;;2.00;2.00;;;;;21.32;42.59;100737.16;146636;595;45020;-73
2023/03/06 12:12:19;;;;;;;;;1.00;1.00;;;;;21.28;41.98;100730.09;146632;613;45016;-72
2023/03/06 12:16:06;;;;;;;;;;;;;;;;;;;;;
2023/03/06 12:19:36;;;;;;;;;1.00;1.00;;;;;21.01;45.56;100728.09;146637;655;46016;-73
2023/03/06 12:23:11;;;;;;;;;1.00;1.00;;;;;20.86;46.79;100725.34;146636;569;45020;-72
2023/03/06 12:26:50;;;;;;;;;1.00;1.00;;;;;20.84;46.46;100714.78;146635;713;45019;-72
2023/03/06 12:30:42;;;;;;;;;2.67;1.67;;;;;19.44;47.90;100433.44;146637;580;45020;-72
2023/03/06 12:34:09;;;;;;;;;2.00;2.00;;;;;19.56;43.98;100417.78;146634;572;45915;-71
2023/03/06 12:37:53;;;;;;;;;2.33;1.67;;;;;21.28;45.16;100700.16;146637;649;45020;-71
2023/03/06 12:41:27;;;;;;;;;2.00;2.00;;;;;19.21;43.34;100317.50;146633;588;45016;-72
2023/03/06 12:44:56;;;;;;;;;1.67;1.67;;;;;21.57;41.39;100688.09;146637;589;45020;-73
2023/03/06 12:48:18;;;;;;;;;1.67;0.00;;;;;21.47;45.50;100690.69;146635;580;45016;-75
2023/03/06 12:51:18;;;;;;;;;0.67;0.67;;;;;21.20;41.63;100687.81;146636;595;46010;-72
2023/03/06 12:54:38;;;;;;;;;1.00;1.00;;;;;21.03;48.17;100693.84;146637;655;45016;-73
2023/03/06 12:57:52;;;;;;;;;1.67;1.00;;;;;20.73;47.12;100684.81;146640;563;46010;-71
2023/03/06 13:02:01;;;;;;;;;2.00;2.00;;;;;18.77;47.84;100416.87;146635;648;45015;-74
2023/03/06 13:05:47;;;;;;;;;1.33;1.33;;;;;19.37;46.82;100542.88;146640;601;45020;-71
2023/03/06 13:09:42;;;;;;;;;2.00;2.00;;;;;18.68;48.52;100414.97;146636;592;45013;-72
2023/03/06 13:13:23;;;;;;;;;1.00;1.00;;;;;18.36;49.86;100397.03;146639;649;45020;-72
2023/03/06 13:16:50;;;;;;;;;;;;;;;;;;;;;
2023/03/06 13:19:49;;;;;;;;;1.67;1.00;;;;;19.51;44.46;100686.84;146639;600;45012;-72
2023/03/06 13:22:57;;;;;;;;;1.00;1.00;;;;;19.26;43.43;100686.47;146636;566;45016;-73
2023/03/06 13:26:50;;;;;;;;;1.00;1.00;;;;;17.43;46.92;100409.47;146638;622;45021;-72
2023/03/06 13:30:10;;;;;;;;;2.67;2.33;;;;;17.33;48.56;100418.00;146637;631;45016;-74
2023/03/06 13:33:34;;;;;;;;;1.00;1.00;;;;;18.80;44.92;100692.72;146631;661;45020;-72
2023/03/06 13:36:57;;;;;;;;;0.33;0.33;;;;;17.09;47.18;100403.56;146629;579;45016;-71
2023/03/06 13:40:35;;;;;;;;;2.00;0.67;;;;;17.19;45.01;100419.47;146629;574;45023;-72
2023/03/06 13:43:32;;;;;;;;;2.67;1.00;;;;;18.80;45.83;100690.97;146629;636;45016;-72
2023/03/06 13:46:49;;;;;;;;;2.00;2.00;;;;;18.85;46.38;100691.94;146637;566;45012;-72
2023/03/06 13:49:53;;;;;;;;;2.00;1.00;;;;;18.82;43.73;100702.41;146622;595;45914;-72
2023/03/06 13:53:35;;;;;;;;;1.00;1.00;;;;;17.04;46.01;100399.09;146625;629;45020;-72
2023/03/06 13:57:19;;;;;;;;;1.00;1.00;;;;;18.63;42.62;100688.03;146625;622;45912;-73
2023/03/06 14:00:53;;;;;;;;;2.00;0.67;;;;;18.52;42.05;100679.06;146631;568;45022;-72
2023/03/06 14:04:38;;;;;;;;;2.33;2.00;;;;;18.45;45.67;100674.56;146624;578;45914;-73
2023/03/06 14:07:40;;;;;;;;;4.00;2.00;;;;;18.50;42.48;100675.50;146629;570;45013;-73
2023/03/06 14:10:44;;;;;;;;;2.00;1.00;;;;;18.54;42.11;100676.47;146624;647;45016;-72
2023/03/06 14:14:07;;;;;;;;;3.00;1.67;;;;;17.45;42.20;100506.50;146629;600;45049;-74
2023/03/06 14:17:19;;;;;;;;;1.33;1.33;;;;;18.29;40.80;100664.66;146626;573;45912;-73
2023/03/06 14:20:33;;;;;;;;;3.00;2.00;;;;;18.09;40.87;100664.25;146632;667;45012;-72
2023/03/06 14:23:43;;;;;;;;;3.67;2.00;;;;;17.85;43.33;100676.03;146624;603;45017;-72
2023/03/06 14:26:49;;;;;;;;;3.33;3.33;;;;;16.84;41.63;100546.22;146626;566;45020;-72
2023/03/06 14:29:48;;;;;;;;;0.00;0.00;;;;;17.49;40.11;100674.34;146625;584;45914;-75
2023/03/06 14:32:57;;;;;;;;;0.33;0.33;;;;;16.40;39.98;100511.13;146629;586;45021;-76
2023/03/06 14:36:12;;;;;;;;;0.67;0.67;;;;;15.54;44.11;100378.19;146626;569;45014;-73
2023/03/06 14:39:12;;;;;;;;;2.67;1.33;;;;;17.23;42.21;100667.63;146634;596;45020;-74
2023/03/06 14:42:36;;;;;;;;;1.00;1.00;;;;;15.34;40.35;100340.25;146631;682;45035;-73
2023/03/06 14:45:56;;;;;;;;;0.00;0.00;;;;;15.42;41.29;100365.72;146633;604;45012;-73
2023/03/06 14:49:12;;;;;;;;;1.33;1.33;;;;;17.08;45.87;100674.25;146629;593;45016;-72
2023/03/06 14:52:21;;;;;;;;;2.00;1.00;;;;;17.07;47.45;100661.13;146634;575;45020;-73
2023/03/06 14:55:33;;;;;;;;;3.00;1.00;;;;;17.22;46.21;100671.06;146625;618;45914;-73
2023/03/06 14:59:10;;;;;;;;;2.00;2.00;;;;;15.86;43.54;100413.03;146629;565;45020;-74
2023/03/06 15:02:36;;;;;;;;;1.00;1.00;;;;;17.43;44.72;100671.56;146624;600;45018;-75
2023/03/06 15:05:36;;;;;;;;;2.33;2.33;;;;;17.49;43.80;100674.34;146633;570;45020;-74
2023/03/06 15:08:50;;;;;;;;;1.33;0.67;;;;;17.62;42.25;100675.47;146623;583;45914;-74
2023/03/06 15:12:06;;;;;;;;;0.33;0.33;;;;;17.68;41.82;100683.50;146631;641;45020;-75
2023/03/06 15:15:40;;;;;;;;;2.00;0.67;;;;;17.65;40.12;100669.44;146623;641;45014;-74
2023/03/06 15:18:41;;;;;;;;;2.00;1.00;;;;;17.55;38.41;100665.72;146627;565;46010;-74
2023/03/06 15:21:52;;;;;;;;;1.67;1.67;;;;;17.42;42.06;100664.56;146620;580;48016;-73
2023/03/06 15:24:53;;;;;;;;;3.00;3.00;;;;;17.26;40.56;100670.31;146630;585;45020;-74